sensor_id;sensor_type;location;lat;lon;timestamp;P1;durP1;ratioP1;P2;durP2;ratioP2
43817;SDS011;29868;47.360;18.984;2023-08-06T00:00:08;16.83;;;11.43;;
43817;SDS011;29868;47.360;18.984;2023-08-06T00:02:34;15.82;;;10.15;;
43817;SDS011;29868;47.360;18.984;2023-08-06T00:05:00;16.55;;;10.05;;
43817;SDS011;29868;47.360;18.984;2023-08-06T00:07:25;17.17;;;10.35;;
43817;SDS011;29868;47.360;18.984;2023-08-06T00:09:51;18.08;;;10.73;;
43817;SDS011;29868;47.360;18.984;2023-08-06T00:12:16;16.33;;;10.40;;
43817;SDS011;29868;47.360;18.984;2023-08-06T00:14:42;17.83;;;11.02;;
43817;SDS011;29868;47.360;18.984;2023-08-06T00:17:07;15.18;;;10.50;;
43817;SDS011;29868;47.360;18.984;2023-08-06T00:19:33;16.00;;;10.68;;
43817;SDS011;29868;47.360;18.984;2023-08-06T00:21:58;15.30;;;10.30;;
43817;SDS011;29868;47.360;18.984;2023-08-06T00:24:23;15.57;;;10.10;;
43817;SDS011;29868;47.360;18.984;2023-08-06T00:26:49;17.75;;;10.85;;
43817;SDS011;29868;47.360;18.984;2023-08-06T00:29:14;14.88;;;10.07;;
43817;SDS011;29868;47.360;18.984;2023-08-06T00:31:40;15.15;;;10.05;;
43817;SDS011;29868;47.360;18.984;2023-08-06T00:34:05;17.50;;;10.77;;
43817;SDS011;29868;47.360;18.984;2023-08-06T00:36:30;15.38;;;10.20;;
43817;SDS011;29868;47.360;18.984;2023-08-06T00:38:56;15.23;;;10.18;;
43817;SDS011;29868;47.360;18.984;2023-08-06T00:41:21;15.02;;;10.00;;
43817;SDS011;29868;47.360;18.984;2023-08-06T00:43:47;13.90;;;10.10;;
43817;SDS011;29868;47.360;18.984;2023-08-06T00:46:12;14.30;;;9.57;;
43817;SDS011;29868;47.360;18.984;2023-08-06T00:48:39;14.68;;;10.02;;
43817;SDS011;29868;47.360;18.984;2023-08-06T00:51:06;15.38;;;9.68;;
43817;SDS011;29868;47.360;18.984;2023-08-06T00:53:31;15.35;;;9.50;;
43817;SDS011;29868;47.360;18.984;2023-08-06T00:55:57;12.85;;;9.10;;
43817;SDS011;29868;47.360;18.984;2023-08-06T00:58:23;13.25;;;8.77;;
43817;SDS011;29868;47.360;18.984;2023-08-06T01:00:49;11.93;;;8.40;;
43817;SDS011;29868;47.360;18.984;2023-08-06T01:03:15;13.68;;;8.73;;
43817;SDS011;29868;47.360;18.984;2023-08-06T01:05:41;13.07;;;8.27;;
43817;SDS011;29868;47.360;18.984;2023-08-06T01:10:41;13.13;;;8.40;;
43817;SDS011;29868;47.360;18.984;2023-08-06T01:15:55;12.30;;;8.30;;
43817;SDS011;29868;47.360;18.984;2023-08-06T01:18:24;14.38;;;9.30;;
43817;SDS011;29868;47.360;18.984;2023-08-06T01:20:50;13.35;;;9.18;;
43817;SDS011;29868;47.360;18.984;2023-08-06T01:23:15;12.82;;;8.88;;
43817;SDS011;29868;47.360;18.984;2023-08-06T01:28:48;14.07;;;8.95;;
43817;SDS011;29868;47.360;18.984;2023-08-06T01:31:24;15.57;;;8.95;;
43817;SDS011;29868;47.360;18.984;2023-08-06T01:33:54;14.30;;;8.52;;
43817;SDS011;29868;47.360;18.984;2023-08-06T01:36:23;13.05;;;8.35;;
43817;SDS011;29868;47.360;18.984;2023-08-06T01:38:50;13.68;;;8.23;;
43817;SDS011;29868;47.360;18.984;2023-08-06T01:41:19;12.13;;;7.95;;
43817;SDS011;29868;47.360;18.984;2023-08-06T01:43:44;14.15;;;7.85;;
43817;SDS011;29868;47.360;18.984;2023-08-06T01:46:10;12.35;;;7.05;;
43817;SDS011;29868;47.360;18.984;2023-08-06T01:48:35;10.85;;;7.07;;
43817;SDS011;29868;47.360;18.984;2023-08-06T01:51:01;9.93;;;6.32;;
43817;SDS011;29868;47.360;18.984;2023-08-06T01:53:28;11.35;;;6.43;;
43817;SDS011;29868;47.360;18.984;2023-08-06T01:55:54;10.75;;;6.70;;
43817;SDS011;29868;47.360;18.984;2023-08-06T01:58:19;10.02;;;6.45;;
43817;SDS011;29868;47.360;18.984;2023-08-06T02:00:44;9.60;;;6.88;;
43817;SDS011;29868;47.360;18.984;2023-08-06T02:03:10;10.70;;;6.28;;
43817;SDS011;29868;47.360;18.984;2023-08-06T02:05:35;10.30;;;6.82;;
43817;SDS011;29868;47.360;18.984;2023-08-06T02:08:00;10.23;;;6.88;;
43817;SDS011;29868;47.360;18.984;2023-08-06T02:10:26;11.35;;;6.82;;
43817;SDS011;29868;47.360;18.984;2023-08-06T02:12:51;10.98;;;7.18;;
43817;SDS011;29868;47.360;18.984;2023-08-06T02:15:17;12.65;;;7.15;;
43817;SDS011;29868;47.360;18.984;2023-08-06T02:17:42;10.70;;;6.45;;
43817;SDS011;29868;47.360;18.984;2023-08-06T02:20:07;11.68;;;7.18;;
43817;SDS011;29868;47.360;18.984;2023-08-06T02:22:33;11.38;;;7.07;;
43817;SDS011;29868;47.360;18.984;2023-08-06T02:24:59;11.95;;;7.10;;
43817;SDS011;29868;47.360;18.984;2023-08-06T02:27:24;10.75;;;6.93;;
43817;SDS011;29868;47.360;18.984;2023-08-06T02:29:50;10.52;;;6.78;;
43817;SDS011;29868;47.360;18.984;2023-08-06T02:32:15;11.00;;;7.15;;
43817;SDS011;29868;47.360;18.984;2023-08-06T02:34:41;12.35;;;7.63;;
43817;SDS011;29868;47.360;18.984;2023-08-06T02:37:07;11.38;;;6.88;;
43817;SDS011;29868;47.360;18.984;2023-08-06T02:39:32;9.52;;;6.30;;
43817;SDS011;29868;47.360;18.984;2023-08-06T02:41:59;9.55;;;6.00;;
43817;SDS011;29868;47.360;18.984;2023-08-06T02:44:27;11.93;;;5.95;;
43817;SDS011;29868;47.360;18.984;2023-08-06T02:46:53;9.25;;;6.35;;
43817;SDS011;29868;47.360;18.984;2023-08-06T02:49:19;9.25;;;5.85;;
43817;SDS011;29868;47.360;18.984;2023-08-06T02:51:47;11.02;;;5.45;;
43817;SDS011;29868;47.360;18.984;2023-08-06T02:54:12;9.75;;;5.60;;
43817;SDS011;29868;47.360;18.984;2023-08-06T02:56:38;7.95;;;5.30;;
43817;SDS011;29868;47.360;18.984;2023-08-06T02:59:03;8.82;;;5.43;;
43817;SDS011;29868;47.360;18.984;2023-08-06T03:01:29;9.50;;;5.60;;
43817;SDS011;29868;47.360;18.984;2023-08-06T03:03:54;7.82;;;4.90;;
43817;SDS011;29868;47.360;18.984;2023-08-06T03:06:20;8.77;;;5.07;;
43817;SDS011;29868;47.360;18.984;2023-08-06T03:08:45;8.55;;;5.05;;
43817;SDS011;29868;47.360;18.984;2023-08-06T03:11:10;7.95;;;4.90;;
43817;SDS011;29868;47.360;18.984;2023-08-06T03:13:36;9.10;;;5.55;;
43817;SDS011;29868;47.360;18.984;2023-08-06T03:16:01;8.75;;;5.60;;
43817;SDS011;29868;47.360;18.984;2023-08-06T03:18:27;8.48;;;5.43;;
43817;SDS011;29868;47.360;18.984;2023-08-06T03:20:53;9.02;;;5.60;;
43817;SDS011;29868;47.360;18.984;2023-08-06T03:23:18;8.77;;;5.72;;
43817;SDS011;29868;47.360;18.984;2023-08-06T03:25:44;7.70;;;4.90;;
43817;SDS011;29868;47.360;18.984;2023-08-06T03:28:09;6.95;;;4.68;;
43817;SDS011;29868;47.360;18.984;2023-08-06T03:30:35;9.55;;;4.63;;
43817;SDS011;29868;47.360;18.984;2023-08-06T03:33:00;7.60;;;4.60;;
43817;SDS011;29868;47.360;18.984;2023-08-06T03:35:26;7.68;;;4.75;;
43817;SDS011;29868;47.360;18.984;2023-08-06T03:37:51;7.97;;;4.95;;
43817;SDS011;29868;47.360;18.984;2023-08-06T03:40:17;7.38;;;5.20;;
43817;SDS011;29868;47.360;18.984;2023-08-06T03:42:42;9.60;;;5.32;;
43817;SDS011;29868;47.360;18.984;2023-08-06T03:45:07;8.25;;;5.30;;
43817;SDS011;29868;47.360;18.984;2023-08-06T03:47:33;8.70;;;5.38;;
43817;SDS011;29868;47.360;18.984;2023-08-06T03:49:59;10.60;;;6.20;;
43817;SDS011;29868;47.360;18.984;2023-08-06T03:52:24;10.88;;;6.20;;
43817;SDS011;29868;47.360;18.984;2023-08-06T03:54:50;10.32;;;6.05;;
43817;SDS011;29868;47.360;18.984;2023-08-06T03:57:15;10.15;;;6.30;;
43817;SDS011;29868;47.360;18.984;2023-08-06T03:59:41;9.38;;;5.68;;
43817;SDS011;29868;47.360;18.984;2023-08-06T04:02:06;8.93;;;5.32;;
43817;SDS011;29868;47.360;18.984;2023-08-06T04:04:31;10.20;;;5.18;;
43817;SDS011;29868;47.360;18.984;2023-08-06T04:06:57;7.93;;;5.35;;
43817;SDS011;29868;47.360;18.984;2023-08-06T04:09:22;8.00;;;4.88;;
43817;SDS011;29868;47.360;18.984;2023-08-06T04:11:48;6.10;;;4.03;;
43817;SDS011;29868;47.360;18.984;2023-08-06T04:14:13;5.47;;;3.97;;
43817;SDS011;29868;47.360;18.984;2023-08-06T04:16:38;5.57;;;3.50;;
43817;SDS011;29868;47.360;18.984;2023-08-06T04:19:04;5.93;;;3.42;;
43817;SDS011;29868;47.360;18.984;2023-08-06T04:21:29;5.28;;;3.08;;
43817;SDS011;29868;47.360;18.984;2023-08-06T04:23:55;4.90;;;3.03;;
43817;SDS011;29868;47.360;18.984;2023-08-06T04:26:21;5.03;;;3.10;;
43817;SDS011;29868;47.360;18.984;2023-08-06T04:28:47;4.25;;;3.13;;
43817;SDS011;29868;47.360;18.984;2023-08-06T04:31:13;5.93;;;2.97;;
43817;SDS011;29868;47.360;18.984;2023-08-06T04:33:39;4.50;;;2.90;;
43817;SDS011;29868;47.360;18.984;2023-08-06T04:36:04;4.80;;;2.97;;
43817;SDS011;29868;47.360;18.984;2023-08-06T04:38:30;4.38;;;3.00;;
43817;SDS011;29868;47.360;18.984;2023-08-06T04:40:55;4.60;;;2.85;;
43817;SDS011;29868;47.360;18.984;2023-08-06T04:43:21;5.72;;;2.78;;
43817;SDS011;29868;47.360;18.984;2023-08-06T04:45:46;5.07;;;2.80;;
43817;SDS011;29868;47.360;18.984;2023-08-06T04:48:15;4.30;;;2.10;;
43817;SDS011;29868;47.360;18.984;2023-08-06T04:50:44;3.25;;;1.95;;
43817;SDS011;29868;47.360;18.984;2023-08-06T04:53:11;4.70;;;1.80;;
43817;SDS011;29868;47.360;18.984;2023-08-06T04:55:36;1.90;;;1.45;;
43817;SDS011;29868;47.360;18.984;2023-08-06T04:58:02;1.77;;;1.15;;
43817;SDS011;29868;47.360;18.984;2023-08-06T05:00:27;3.13;;;1.38;;
43817;SDS011;29868;47.360;18.984;2023-08-06T05:02:53;1.73;;;1.13;;
43817;SDS011;29868;47.360;18.984;2023-08-06T05:05:18;1.45;;;1.17;;
43817;SDS011;29868;47.360;18.984;2023-08-06T05:07:45;1.20;;;0.98;;
43817;SDS011;29868;47.360;18.984;2023-08-06T05:10:13;1.70;;;1.00;;
43817;SDS011;29868;47.360;18.984;2023-08-06T05:12:38;2.40;;;1.00;;
43817;SDS011;29868;47.360;18.984;2023-08-06T05:15:04;2.33;;;0.90;;
43817;SDS011;29868;47.360;18.984;2023-08-06T05:17:29;1.55;;;1.00;;
43817;SDS011;29868;47.360;18.984;2023-08-06T05:19:55;2.25;;;0.77;;
43817;SDS011;29868;47.360;18.984;2023-08-06T05:22:20;0.88;;;0.70;;
43817;SDS011;29868;47.360;18.984;2023-08-06T05:24:46;0.60;;;0.60;;
43817;SDS011;29868;47.360;18.984;2023-08-06T05:27:11;1.05;;;0.70;;
43817;SDS011;29868;47.360;18.984;2023-08-06T05:29:37;2.30;;;0.68;;
43817;SDS011;29868;47.360;18.984;2023-08-06T05:32:02;0.80;;;0.63;;
43817;SDS011;29868;47.360;18.984;2023-08-06T05:34:28;0.75;;;0.60;;
43817;SDS011;29868;47.360;18.984;2023-08-06T05:36:54;0.85;;;0.30;;
43817;SDS011;29868;47.360;18.984;2023-08-06T05:39:19;0.52;;;0.45;;
43817;SDS011;29868;47.360;18.984;2023-08-06T05:41:45;0.20;;;0.20;;
43817;SDS011;29868;47.360;18.984;2023-08-06T05:44:10;0.13;;;0.13;;
43817;SDS011;29868;47.360;18.984;2023-08-06T05:46:36;0.60;;;0.22;;
43817;SDS011;29868;47.360;18.984;2023-08-06T05:49:01;0.10;;;0.10;;
43817;SDS011;29868;47.360;18.984;2023-08-06T05:51:27;0.22;;;0.08;;
43817;SDS011;29868;47.360;18.984;2023-08-06T05:53:53;0.13;;;0.10;;
43817;SDS011;29868;47.360;18.984;2023-08-06T05:56:18;0.10;;;0.10;;
43817;SDS011;29868;47.360;18.984;2023-08-06T05:58:43;0.20;;;0.20;;
43817;SDS011;29868;47.360;18.984;2023-08-06T06:01:09;0.35;;;0.10;;
43817;SDS011;29868;47.360;18.984;2023-08-06T06:03:34;0.10;;;0.08;;
43817;SDS011;29868;47.360;18.984;2023-08-06T06:06:00;0.38;;;0.10;;
43817;SDS011;29868;47.360;18.984;2023-08-06T06:08:26;0.47;;;0.10;;
43817;SDS011;29868;47.360;18.984;2023-08-06T06:10:51;0.68;;;0.30;;
43817;SDS011;29868;47.360;18.984;2023-08-06T06:13:17;0.20;;;0.20;;
43817;SDS011;29868;47.360;18.984;2023-08-06T06:15:42;0.30;;;0.20;;
43817;SDS011;29868;47.360;18.984;2023-08-06T06:18:07;0.40;;;0.40;;
43817;SDS011;29868;47.360;18.984;2023-08-06T06:20:33;0.45;;;0.45;;
43817;SDS011;29868;47.360;18.984;2023-08-06T06:22:59;0.43;;;0.32;;
43817;SDS011;29868;47.360;18.984;2023-08-06T06:25:24;0.40;;;0.40;;
43817;SDS011;29868;47.360;18.984;2023-08-06T06:27:49;0.38;;;0.38;;
43817;SDS011;29868;47.360;18.984;2023-08-06T06:30:15;1.00;;;0.40;;
43817;SDS011;29868;47.360;18.984;2023-08-06T06:32:40;0.50;;;0.50;;
43817;SDS011;29868;47.360;18.984;2023-08-06T06:35:06;1.20;;;0.50;;
43817;SDS011;29868;47.360;18.984;2023-08-06T06:37:32;0.40;;;0.40;;
43817;SDS011;29868;47.360;18.984;2023-08-06T06:39:57;0.63;;;0.50;;
43817;SDS011;29868;47.360;18.984;2023-08-06T06:42:23;1.27;;;0.57;;
43817;SDS011;29868;47.360;18.984;2023-08-06T06:44:48;0.60;;;0.60;;
43817;SDS011;29868;47.360;18.984;2023-08-06T06:47:14;0.40;;;0.40;;
43817;SDS011;29868;47.360;18.984;2023-08-06T06:49:39;0.90;;;0.90;;
43817;SDS011;29868;47.360;18.984;2023-08-06T06:52:05;0.32;;;0.32;;
43817;SDS011;29868;47.360;18.984;2023-08-06T06:54:30;0.38;;;0.38;;
43817;SDS011;29868;47.360;18.984;2023-08-06T06:56:56;0.43;;;0.40;;
43817;SDS011;29868;47.360;18.984;2023-08-06T06:59:22;0.30;;;0.30;;
43817;SDS011;29868;47.360;18.984;2023-08-06T07:01:47;0.68;;;0.30;;
43817;SDS011;29868;47.360;18.984;2023-08-06T07:04:12;1.70;;;0.30;;
43817;SDS011;29868;47.360;18.984;2023-08-06T07:06:38;0.30;;;0.30;;
43817;SDS011;29868;47.360;18.984;2023-08-06T07:09:03;0.20;;;0.20;;
43817;SDS011;29868;47.360;18.984;2023-08-06T07:11:29;0.30;;;0.30;;
43817;SDS011;29868;47.360;18.984;2023-08-06T07:13:57;0.30;;;0.30;;
43817;SDS011;29868;47.360;18.984;2023-08-06T07:16:25;0.28;;;0.28;;
43817;SDS011;29868;47.360;18.984;2023-08-06T07:18:52;0.50;;;0.38;;
43817;SDS011;29868;47.360;18.984;2023-08-06T07:21:18;0.13;;;0.13;;
43817;SDS011;29868;47.360;18.984;2023-08-06T07:23:43;0.28;;;0.28;;
43817;SDS011;29868;47.360;18.984;2023-08-06T07:26:09;0.35;;;0.20;;
43817;SDS011;29868;47.360;18.984;2023-08-06T07:28:34;0.20;;;0.20;;
43817;SDS011;29868;47.360;18.984;2023-08-06T07:31:00;0.38;;;0.30;;
43817;SDS011;29868;47.360;18.984;2023-08-06T07:33:28;0.43;;;0.43;;
43817;SDS011;29868;47.360;18.984;2023-08-06T07:35:53;0.10;;;0.10;;
43817;SDS011;29868;47.360;18.984;2023-08-06T07:38:19;0.20;;;0.20;;
43817;SDS011;29868;47.360;18.984;2023-08-06T07:40:44;0.32;;;0.30;;
43817;SDS011;29868;47.360;18.984;2023-08-06T07:43:10;0.22;;;0.22;;
43817;SDS011;29868;47.360;18.984;2023-08-06T07:45:35;0.40;;;0.40;;
43817;SDS011;29868;47.360;18.984;2023-08-06T07:48:01;0.30;;;0.30;;
43817;SDS011;29868;47.360;18.984;2023-08-06T07:50:27;0.60;;;0.60;;
43817;SDS011;29868;47.360;18.984;2023-08-06T07:52:52;0.40;;;0.40;;
43817;SDS011;29868;47.360;18.984;2023-08-06T07:55:17;0.30;;;0.30;;
43817;SDS011;29868;47.360;18.984;2023-08-06T07:57:43;0.40;;;0.40;;
43817;SDS011;29868;47.360;18.984;2023-08-06T08:00:08;0.40;;;0.40;;
43817;SDS011;29868;47.360;18.984;2023-08-06T08:02:34;0.30;;;0.30;;
43817;SDS011;29868;47.360;18.984;2023-08-06T08:05:00;0.22;;;0.22;;
43817;SDS011;29868;47.360;18.984;2023-08-06T08:07:25;0.30;;;0.30;;
43817;SDS011;29868;47.360;18.984;2023-08-06T08:09:53;0.40;;;0.40;;
43817;SDS011;29868;47.360;18.984;2023-08-06T08:12:18;0.85;;;0.43;;
43817;SDS011;29868;47.360;18.984;2023-08-06T08:14:44;0.30;;;0.30;;
43817;SDS011;29868;47.360;18.984;2023-08-06T08:17:10;0.38;;;0.28;;
43817;SDS011;29868;47.360;18.984;2023-08-06T08:19:36;0.38;;;0.38;;
43817;SDS011;29868;47.360;18.984;2023-08-06T08:22:02;0.52;;;0.50;;
43817;SDS011;29868;47.360;18.984;2023-08-06T08:24:28;0.40;;;0.40;;
43817;SDS011;29868;47.360;18.984;2023-08-06T08:26:55;0.77;;;0.40;;
43817;SDS011;29868;47.360;18.984;2023-08-06T08:29:21;0.68;;;0.50;;
43817;SDS011;29868;47.360;18.984;2023-08-06T08:31:47;0.40;;;0.40;;
43817;SDS011;29868;47.360;18.984;2023-08-06T08:34:16;0.55;;;0.43;;
43817;SDS011;29868;47.360;18.984;2023-08-06T08:36:42;1.08;;;0.50;;
43817;SDS011;29868;47.360;18.984;2023-08-06T08:39:08;0.60;;;0.60;;
43817;SDS011;29868;47.360;18.984;2023-08-06T08:41:34;0.82;;;0.60;;
43817;SDS011;29868;47.360;18.984;2023-08-06T08:44:01;0.95;;;0.70;;
43817;SDS011;29868;47.360;18.984;2023-08-06T08:46:27;0.50;;;0.50;;
43817;SDS011;29868;47.360;18.984;2023-08-06T08:48:55;0.70;;;0.70;;
43817;SDS011;29868;47.360;18.984;2023-08-06T08:51:24;0.70;;;0.70;;
43817;SDS011;29868;47.360;18.984;2023-08-06T08:53:50;1.58;;;0.80;;
43817;SDS011;29868;47.360;18.984;2023-08-06T08:56:20;0.70;;;0.70;;
43817;SDS011;29868;47.360;18.984;2023-08-06T08:58:46;0.88;;;0.80;;
43817;SDS011;29868;47.360;18.984;2023-08-06T09:01:11;1.02;;;0.93;;
43817;SDS011;29868;47.360;18.984;2023-08-06T09:03:37;0.85;;;0.85;;
43817;SDS011;29868;47.360;18.984;2023-08-06T09:06:04;0.93;;;0.70;;
43817;SDS011;29868;47.360;18.984;2023-08-06T09:08:33;1.20;;;1.02;;
43817;SDS011;29868;47.360;18.984;2023-08-06T09:11:01;1.40;;;1.00;;
43817;SDS011;29868;47.360;18.984;2023-08-06T09:13:27;1.02;;;0.95;;
43817;SDS011;29868;47.360;18.984;2023-08-06T09:15:53;1.05;;;1.00;;
43817;SDS011;29868;47.360;18.984;2023-08-06T09:18:24;1.42;;;0.95;;
43817;SDS011;29868;47.360;18.984;2023-08-06T09:20:52;2.10;;;1.50;;
43817;SDS011;29868;47.360;18.984;2023-08-06T09:23:17;2.40;;;1.15;;
43817;SDS011;29868;47.360;18.984;2023-08-06T09:25:42;1.30;;;1.00;;
43817;SDS011;29868;47.360;18.984;2023-08-06T09:28:08;2.05;;;1.02;;
43817;SDS011;29868;47.360;18.984;2023-08-06T09:30:34;1.50;;;0.90;;
43817;SDS011;29868;47.360;18.984;2023-08-06T09:33:02;1.85;;;1.00;;
43817;SDS011;29868;47.360;18.984;2023-08-06T09:35:28;1.23;;;1.13;;
43817;SDS011;29868;47.360;18.984;2023-08-06T09:38:06;1.00;;;0.90;;
43817;SDS011;29868;47.360;18.984;2023-08-06T09:40:32;1.15;;;0.88;;
43817;SDS011;29868;47.360;18.984;2023-08-06T09:42:58;0.90;;;0.90;;
43817;SDS011;29868;47.360;18.984;2023-08-06T09:45:33;1.15;;;0.75;;
43817;SDS011;29868;47.360;18.984;2023-08-06T09:48:00;0.98;;;0.85;;
43817;SDS011;29868;47.360;18.984;2023-08-06T09:50:32;0.85;;;0.80;;
43817;SDS011;29868;47.360;18.984;2023-08-06T09:53:01;0.90;;;0.80;;
43817;SDS011;29868;47.360;18.984;2023-08-06T09:55:27;0.77;;;0.75;;
43817;SDS011;29868;47.360;18.984;2023-08-06T09:57:53;0.80;;;0.80;;
43817;SDS011;29868;47.360;18.984;2023-08-06T10:00:19;0.90;;;0.73;;
43817;SDS011;29868;47.360;18.984;2023-08-06T10:02:45;0.70;;;0.70;;
43817;SDS011;29868;47.360;18.984;2023-08-06T10:05:12;0.80;;;0.80;;
43817;SDS011;29868;47.360;18.984;2023-08-06T10:07:37;0.68;;;0.68;;
43817;SDS011;29868;47.360;18.984;2023-08-06T10:10:05;0.68;;;0.68;;
43817;SDS011;29868;47.360;18.984;2023-08-06T10:12:35;0.90;;;0.70;;
43817;SDS011;29868;47.360;18.984;2023-08-06T10:15:06;1.10;;;0.80;;
43817;SDS011;29868;47.360;18.984;2023-08-06T10:17:34;0.50;;;0.50;;
43817;SDS011;29868;47.360;18.984;2023-08-06T10:20:02;1.00;;;0.93;;
43817;SDS011;29868;47.360;18.984;2023-08-06T10:22:34;1.23;;;0.57;;
43817;SDS011;29868;47.360;18.984;2023-08-06T10:25:00;0.77;;;0.60;;
43817;SDS011;29868;47.360;18.984;2023-08-06T10:27:33;0.57;;;0.55;;
43817;SDS011;29868;47.360;18.984;2023-08-06T10:32:58;0.73;;;0.60;;
43817;SDS011;29868;47.360;18.984;2023-08-06T10:38:03;0.82;;;0.65;;
43817;SDS011;29868;47.360;18.984;2023-08-06T10:40:30;1.33;;;0.80;;
43817;SDS011;29868;47.360;18.984;2023-08-06T10:43:03;1.42;;;0.70;;
43817;SDS011;29868;47.360;18.984;2023-08-06T10:45:33;1.02;;;0.80;;
43817;SDS011;29868;47.360;18.984;2023-08-06T10:48:00;0.90;;;0.80;;
43817;SDS011;29868;47.360;18.984;2023-08-06T10:50:25;2.08;;;0.80;;
43817;SDS011;29868;47.360;18.984;2023-08-06T10:52:51;0.73;;;0.70;;
43817;SDS011;29868;47.360;18.984;2023-08-06T10:55:24;1.10;;;0.77;;
43817;SDS011;29868;47.360;18.984;2023-08-06T10:57:51;1.00;;;0.90;;
43817;SDS011;29868;47.360;18.984;2023-08-06T11:00:16;0.88;;;0.80;;
43817;SDS011;29868;47.360;18.984;2023-08-06T11:02:41;1.10;;;0.90;;
43817;SDS011;29868;47.360;18.984;2023-08-06T11:05:09;2.10;;;1.25;;
43817;SDS011;29868;47.360;18.984;2023-08-06T11:07:35;1.80;;;0.80;;
43817;SDS011;29868;47.360;18.984;2023-08-06T11:10:07;1.52;;;0.85;;
43817;SDS011;29868;47.360;18.984;2023-08-06T11:12:35;1.70;;;1.07;;
43817;SDS011;29868;47.360;18.984;2023-08-06T11:15:01;1.15;;;0.80;;
43817;SDS011;29868;47.360;18.984;2023-08-06T11:17:28;1.08;;;0.73;;
43817;SDS011;29868;47.360;18.984;2023-08-06T11:19:55;1.23;;;0.90;;
43817;SDS011;29868;47.360;18.984;2023-08-06T11:22:21;1.52;;;0.95;;
43817;SDS011;29868;47.360;18.984;2023-08-06T11:24:47;2.05;;;0.90;;
43817;SDS011;29868;47.360;18.984;2023-08-06T11:27:14;1.20;;;0.80;;
43817;SDS011;29868;47.360;18.984;2023-08-06T11:29:43;2.25;;;0.82;;
43817;SDS011;29868;47.360;18.984;2023-08-06T11:32:09;0.85;;;0.68;;
43817;SDS011;29868;47.360;18.984;2023-08-06T11:34:36;0.93;;;0.80;;
43817;SDS011;29868;47.360;18.984;2023-08-06T11:37:05;0.80;;;0.77;;
43817;SDS011;29868;47.360;18.984;2023-08-06T11:39:32;1.65;;;0.80;;
43817;SDS011;29868;47.360;18.984;2023-08-06T11:42:05;0.90;;;0.77;;
43817;SDS011;29868;47.360;18.984;2023-08-06T11:44:32;0.77;;;0.77;;
43817;SDS011;29868;47.360;18.984;2023-08-06T11:47:01;1.60;;;1.00;;
43817;SDS011;29868;47.360;18.984;2023-08-06T11:52:18;1.10;;;1.00;;
43817;SDS011;29868;47.360;18.984;2023-08-06T11:55:03;1.10;;;0.90;;
43817;SDS011;29868;47.360;18.984;2023-08-06T11:57:35;1.02;;;0.85;;
43817;SDS011;29868;47.360;18.984;2023-08-06T12:00:09;1.02;;;0.90;;
43817;SDS011;29868;47.360;18.984;2023-08-06T12:02:39;1.98;;;0.88;;
43817;SDS011;29868;47.360;18.984;2023-08-06T12:05:13;2.33;;;1.10;;
43817;SDS011;29868;47.360;18.984;2023-08-06T12:07:41;1.58;;;1.23;;
43817;SDS011;29868;47.360;18.984;2023-08-06T12:10:07;1.40;;;1.17;;
43817;SDS011;29868;47.360;18.984;2023-08-06T12:12:34;1.33;;;1.00;;
43817;SDS011;29868;47.360;18.984;2023-08-06T12:15:00;1.33;;;1.10;;
43817;SDS011;29868;47.360;18.984;2023-08-06T12:17:26;1.30;;;1.00;;
43817;SDS011;29868;47.360;18.984;2023-08-06T12:19:52;1.63;;;1.00;;
43817;SDS011;29868;47.360;18.984;2023-08-06T12:22:18;1.90;;;0.90;;
43817;SDS011;29868;47.360;18.984;2023-08-06T12:24:44;1.70;;;1.30;;
43817;SDS011;29868;47.360;18.984;2023-08-06T12:27:10;1.33;;;1.08;;
43817;SDS011;29868;47.360;18.984;2023-08-06T12:29:37;1.33;;;1.13;;
43817;SDS011;29868;47.360;18.984;2023-08-06T12:32:05;1.60;;;1.10;;
43817;SDS011;29868;47.360;18.984;2023-08-06T12:34:31;1.00;;;0.90;;
43817;SDS011;29868;47.360;18.984;2023-08-06T12:36:56;1.00;;;0.90;;
43817;SDS011;29868;47.360;18.984;2023-08-06T12:39:22;0.80;;;0.65;;
43817;SDS011;29868;47.360;18.984;2023-08-06T12:41:47;1.00;;;0.75;;
43817;SDS011;29868;47.360;18.984;2023-08-06T12:44:12;0.73;;;0.70;;
43817;SDS011;29868;47.360;18.984;2023-08-06T12:46:38;0.75;;;0.75;;
43817;SDS011;29868;47.360;18.984;2023-08-06T12:49:03;0.93;;;0.82;;
43817;SDS011;29868;47.360;18.984;2023-08-06T12:51:29;0.80;;;0.80;;
43817;SDS011;29868;47.360;18.984;2023-08-06T12:53:56;0.90;;;0.77;;
43817;SDS011;29868;47.360;18.984;2023-08-06T12:56:21;1.10;;;1.00;;
43817;SDS011;29868;47.360;18.984;2023-08-06T12:58:46;1.58;;;1.02;;
43817;SDS011;29868;47.360;18.984;2023-08-06T13:01:12;1.10;;;1.00;;
43817;SDS011;29868;47.360;18.984;2023-08-06T13:03:37;1.27;;;0.90;;
43817;SDS011;29868;47.360;18.984;2023-08-06T13:06:03;1.90;;;1.23;;
43817;SDS011;29868;47.360;18.984;2023-08-06T13:08:28;1.38;;;1.10;;
43817;SDS011;29868;47.360;18.984;2023-08-06T13:10:53;1.98;;;1.50;;
43817;SDS011;29868;47.360;18.984;2023-08-06T13:13:19;1.45;;;1.33;;
43817;SDS011;29868;47.360;18.984;2023-08-06T13:15:44;1.58;;;1.35;;
43817;SDS011;29868;47.360;18.984;2023-08-06T13:18:10;2.20;;;1.50;;
43817;SDS011;29868;47.360;18.984;2023-08-06T13:20:37;1.30;;;1.20;;
43817;SDS011;29868;47.360;18.984;2023-08-06T13:23:04;1.88;;;1.40;;
43817;SDS011;29868;47.360;18.984;2023-08-06T13:25:30;3.38;;;1.40;;
43817;SDS011;29868;47.360;18.984;2023-08-06T13:27:55;1.90;;;1.40;;
43817;SDS011;29868;47.360;18.984;2023-08-06T13:30:21;1.58;;;1.25;;
43817;SDS011;29868;47.360;18.984;2023-08-06T13:32:48;2.05;;;1.45;;
43817;SDS011;29868;47.360;18.984;2023-08-06T13:35:13;2.55;;;1.30;;
43817;SDS011;29868;47.360;18.984;2023-08-06T13:37:39;1.67;;;1.25;;
43817;SDS011;29868;47.360;18.984;2023-08-06T13:40:04;1.50;;;1.20;;
43817;SDS011;29868;47.360;18.984;2023-08-06T13:42:31;3.22;;;1.20;;
43817;SDS011;29868;47.360;18.984;2023-08-06T13:44:57;2.10;;;1.40;;
43817;SDS011;29868;47.360;18.984;2023-08-06T13:47:27;1.63;;;1.30;;
43817;SDS011;29868;47.360;18.984;2023-08-06T13:49:53;1.95;;;1.42;;
43817;SDS011;29868;47.360;18.984;2023-08-06T13:52:18;1.77;;;1.30;;
43817;SDS011;29868;47.360;18.984;2023-08-06T13:54:45;1.83;;;1.20;;
43817;SDS011;29868;47.360;18.984;2023-08-06T13:57:10;1.50;;;1.15;;
43817;SDS011;29868;47.360;18.984;2023-08-06T13:59:36;1.38;;;1.10;;
43817;SDS011;29868;47.360;18.984;2023-08-06T14:02:01;2.35;;;1.40;;
43817;SDS011;29868;47.360;18.984;2023-08-06T14:04:27;1.85;;;1.23;;
43817;SDS011;29868;47.360;18.984;2023-08-06T14:06:52;1.83;;;1.40;;
43817;SDS011;29868;47.360;18.984;2023-08-06T14:09:17;1.80;;;1.35;;
43817;SDS011;29868;47.360;18.984;2023-08-06T14:11:43;1.67;;;1.40;;
43817;SDS011;29868;47.360;18.984;2023-08-06T14:14:10;2.55;;;1.60;;
43817;SDS011;29868;47.360;18.984;2023-08-06T14:16:36;1.95;;;1.40;;
43817;SDS011;29868;47.360;18.984;2023-08-06T14:19:02;2.13;;;1.58;;
43817;SDS011;29868;47.360;18.984;2023-08-06T14:21:28;1.98;;;1.45;;
43817;SDS011;29868;47.360;18.984;2023-08-06T14:23:53;1.55;;;1.30;;
43817;SDS011;29868;47.360;18.984;2023-08-06T14:26:19;1.58;;;1.30;;
43817;SDS011;29868;47.360;18.984;2023-08-06T14:28:44;2.80;;;1.60;;
43817;SDS011;29868;47.360;18.984;2023-08-06T14:31:10;3.58;;;1.63;;
43817;SDS011;29868;47.360;18.984;2023-08-06T14:33:36;2.22;;;1.70;;
43817;SDS011;29868;47.360;18.984;2023-08-06T14:36:01;2.17;;;1.45;;
43817;SDS011;29868;47.360;18.984;2023-08-06T14:38:27;2.30;;;1.52;;
43817;SDS011;29868;47.360;18.984;2023-08-06T14:40:52;2.05;;;1.30;;